Time;durP1;ratioP1;P1;durP2;ratioP2;P2;SDS_P1;SDS_P2;PMS_P1;PMS_P2;Temp;Humidity;BMP_temperature;BMP_pressure;BME280_temperature;BME280_humidity;BME280_pressure;Samples;Min_cycle;Max_cycle;Signal;HPM_P1;HPM_P2
2022/04/17 00:02:16;;;;;;;6.43;4.63;;;24.10;82.20;;;;;;5188151;28;20033;-75
2022/04/17 00:04:47;;;;;;;7.10;4.03;;;24.10;82.20;;;;;;5203697;28;20117;-75
2022/04/17 00:07:17;;;;;;;8.48;4.32;;;24.10;82.40;;;;;;5188605;28;20022;-74
2022/04/17 00:09:48;;;;;;;5.32;4.00;;;24.00;82.40;;;;;;5188516;28;20030;-74
2022/04/17 00:12:20;;;;;;;6.10;3.78;;;24.00;82.50;;;;;;5188478;28;20022;-75
2022/04/17 00:14:51;;;;;;;9.77;4.38;;;23.90;82.60;;;;;;5187738;28;20029;-73
2022/04/17 00:17:22;;;;;;;6.15;3.90;;;23.80;82.70;;;;;;5204165;28;20029;-72
2022/04/17 00:19:53;;;;;;;5.32;3.58;;;23.80;82.70;;;;;;5207538;28;20036;-72
2022/04/17 00:22:25;;;;;;;5.68;3.90;;;23.80;82.90;;;;;;5204908;28;20030;-72
2022/04/17 00:24:59;;;;;;;6.82;4.03;;;23.70;83.10;;;;;;5188386;28;20026;-72
2022/04/17 00:27:30;;;;;;;9.60;4.47;;;23.70;83.20;;;;;;5232669;28;20480;-74
2022/04/17 00:30:01;;;;;;;6.47;3.70;;;23.70;83.10;;;;;;5188152;28;20160;-74
2022/04/17 00:32:32;;;;;;;6.22;3.50;;;23.60;83.10;;;;;;5188020;28;20374;-73
2022/04/17 00:35:04;;;;;;;5.65;3.50;;;23.60;83.30;;;;;;5203206;28;20017;-73
2022/04/17 00:37:36;;;;;;;6.38;4.07;;;23.60;83.40;;;;;;5199768;28;20470;-72
2022/04/17 00:40:07;;;;;;;5.90;3.97;;;23.50;83.50;;;;;;5208491;28;20045;-73
2022/04/17 00:42:41;;;;;;;8.23;4.10;;;23.50;83.70;;;;;;5207056;28;20036;-72
2022/04/17 00:45:12;;;;;;;6.30;3.70;;;23.40;83.80;;;;;;5197872;28;20029;-72
2022/04/17 00:47:42;;;;;;;5.88;3.78;;;23.30;83.80;;;;;;5201624;28;20033;-72
2022/04/17 00:50:13;;;;;;;5.57;3.90;;;23.30;83.90;;;;;;5188527;28;20040;-73
2022/04/17 00:52:45;;;;;;;8.52;4.05;;;23.20;83.90;;;;;;5193025;28;20110;-73
2022/04/17 00:55:16;;;;;;;12.32;3.85;;;23.20;84.00;;;;;;5206853;28;20026;-72
2022/04/17 00:57:47;;;;;;;7.93;3.50;;;23.20;84.00;;;;;;5206652;28;20110;-72
2022/04/17 01:00:19;;;;;;;6.10;3.72;;;23.10;84.50;;;;;;5205242;28;20462;-73
2022/04/17 01:02:50;;;;;;;6.15;4.28;;;23.10;84.50;;;;;;5205306;28;20026;-73
2022/04/17 01:05:20;;;;;;;8.90;4.22;;;23.00;84.40;;;;;;5196897;28;20038;-72
2022/04/17 01:07:52;;;;;;;8.73;3.60;;;23.00;84.40;;;;;;5187409;28;20022;-73
2022/04/17 01:10:24;;;;;;;5.97;4.15;;;23.00;84.50;;;;;;5187474;28;20030;-73
2022/04/17 01:12:58;;;;;;;5.88;4.10;;;22.90;84.70;;;;;;5186865;28;20083;-73
2022/04/17 01:15:30;;;;;;;7.90;4.40;;;22.90;84.70;;;;;;5187241;28;20049;-73
2022/04/17 01:18:01;;;;;;;7.35;4.50;;;22.90;84.80;;;;;;5187254;28;20018;-71
2022/04/17 01:20:32;;;;;;;9.15;4.43;;;22.90;85.00;;;;;;5187110;28;20030;-71
2022/04/17 01:28:41;;;;;;;9.40;4.57;;;22.80;85.20;;;;;;5206209;28;20095;-71
2022/04/17 01:31:12;;;;;;;7.15;4.50;;;22.70;85.30;;;;;;5207352;28;20030;-71
2022/04/17 01:33:42;;;;;;;7.95;5.00;;;22.70;85.40;;;;;;5207179;28;20021;-71
2022/04/17 01:36:13;;;;;;;9.75;4.90;;;22.70;85.50;;;;;;5207354;28;20060;-71
2022/04/17 01:38:44;;;;;;;9.32;4.78;;;22.70;85.50;;;;;;5200593;28;20037;-71
2022/04/17 01:41:18;;;;;;;8.40;4.50;;;22.60;85.50;;;;;;5186911;28;20026;-71
2022/04/17 01:43:49;;;;;;;8.13;5.15;;;22.60;85.50;;;;;;5186734;28;20109;-71
2022/04/17 01:46:22;;;;;;;6.65;4.90;;;22.60;85.70;;;;;;5230578;28;20163;-72
2022/04/17 01:48:54;;;;;;;6.25;4.55;;;22.60;85.70;;;;;;5206953;28;20063;-73
2022/04/17 01:51:25;;;;;;;6.65;4.90;;;22.60;85.70;;;;;;5207108;28;20018;-72
2022/04/17 01:53:56;;;;;;;9.85;4.78;;;22.50;85.90;;;;;;5207001;28;20416;-73
2022/04/17 01:56:27;;;;;;;7.07;5.10;;;22.50;86.00;;;;;;5205492;28;20017;-73
2022/04/17 01:58:57;;;;;;;8.05;4.85;;;22.50;86.10;;;;;;5202078;28;20042;-73
2022/04/17 02:01:28;;;;;;;9.43;5.50;;;22.50;86.20;;;;;;5186605;28;20029;-73
2022/04/17 02:04:01;;;;;;;8.75;5.20;;;22.40;86.00;;;;;;5218369;28;20083;-73
2022/04/17 02:06:32;;;;;;;7.95;5.35;;;22.40;86.20;;;;;;5234570;28;20790;-73
2022/04/17 02:09:03;;;;;;;7.25;5.68;;;22.40;86.20;;;;;;5206873;28;20041;-73
2022/04/17 02:11:34;;;;;;;10.50;6.65;;;22.40;85.90;;;;;;5206936;28;20025;-73
2022/04/17 02:14:06;;;;;;;9.48;6.53;;;22.40;85.90;;;;;;5206813;28;20108;-73
2022/04/17 02:16:37;;;;;;;8.68;5.80;;;22.40;86.10;;;;;;5187221;28;20034;-73
2022/04/17 02:19:08;;;;;;;9.77;6.80;;;22.30;86.30;;;;;;5200424;28;20048;-73
2022/04/17 02:21:39;;;;;;;8.98;6.95;;;22.40;85.90;;;;;;5187559;28;20026;-73
2022/04/17 02:24:10;;;;;;;9.50;6.47;;;22.30;86.10;;;;;;5186290;28;20018;-72
2022/04/17 02:26:41;;;;;;;11.23;7.53;;;22.30;86.00;;;;;;5185917;28;20033;-72
2022/04/17 02:29:12;;;;;;;10.05;6.47;;;22.20;86.10;;;;;;5218178;28;20137;-73
2022/04/17 02:31:47;;;;;;;10.82;6.90;;;22.20;85.70;;;;;;5185883;28;20029;-74
2022/04/17 02:34:24;;;;;;;10.43;6.47;;;22.20;86.00;;;;;;5186144;28;20030;-74
2022/04/17 02:36:59;;;;;;;10.60;7.95;;;22.20;85.90;;;;;;5187067;28;20030;-72
2022/04/17 02:39:35;;;;;;;11.35;7.70;;;22.20;85.50;;;;;;5190451;28;20121;-72
2022/04/17 02:42:06;;;;;;;10.57;7.25;;;22.20;86.00;;;;;;5201828;28;20080;-72
2022/04/17 02:44:38;;;;;;;10.80;7.55;;;22.20;85.70;;;;;;5210504;28;20033;-71
2022/04/17 02:49:58;;;;;;;10.30;7.60;;;22.00;86.40;;;;;;5189988;28;20080;-71
2022/04/17 02:52:29;;;;;;;11.50;7.68;;;22.10;86.00;;;;;;5204516;28;20060;-72
2022/04/17 02:55:00;;;;;;;8.90;6.95;;;22.10;86.60;;;;;;5210370;28;20029;-71
2022/04/17 02:57:31;;;;;;;11.57;7.70;;;22.00;86.20;;;;;;5210175;28;20042;-71
2022/04/17 03:00:08;;;;;;;9.93;7.28;;;22.00;86.20;;;;;;5210485;28;20083;-71
2022/04/17 03:05:36;;;;;;;11.95;7.45;;;22.00;86.40;;;;;;5210266;28;20026;-71
2022/04/17 03:08:15;;;;;;;10.63;7.18;;;22.00;86.50;;;;;;5206917;28;20104;-71
2022/04/17 03:10:46;;;;;;;8.73;6.63;;;22.00;86.20;;;;;;5208084;28;20041;-71
2022/04/17 03:13:17;;;;;;;9.88;7.18;;;22.00;86.30;;;;;;5209844;28;20032;-71
2022/04/17 03:15:48;;;;;;;9.20;6.80;;;21.90;86.50;;;;;;5210007;28;20041;-71
2022/04/17 03:18:19;;;;;;;8.57;6.40;;;21.90;86.40;;;;;;5208932;28;20117;-71
2022/04/17 03:20:49;;;;;;;9.70;6.47;;;21.90;86.60;;;;;;5210063;28;20155;-71
2022/04/17 03:23:20;;;;;;;8.27;6.53;;;21.90;86.50;;;;;;5209950;28;20067;-71
2022/04/17 03:25:51;;;;;;;8.93;7.13;;;21.80;86.80;;;;;;5209923;28;20091;-71
2022/04/17 03:28:22;;;;;;;9.88;6.88;;;21.90;86.60;;;;;;5207467;28;20374;-71
2022/04/17 03:30:53;;;;;;;8.70;6.60;;;21.80;86.60;;;;;;5193515;28;20080;-71
2022/04/17 03:33:23;;;;;;;9.68;6.28;;;21.80;86.80;;;;;;5209722;28;20018;-72
2022/04/17 03:35:55;;;;;;;9.50;6.85;;;21.80;86.80;;;;;;5209670;28;20049;-71
2022/04/17 03:38:26;;;;;;;8.88;6.50;;;21.80;86.90;;;;;;5207813;28;20550;-71
2022/04/17 03:40:59;;;;;;;9.45;6.10;;;21.80;86.90;;;;;;5209524;28;20017;-72
2022/04/17 03:43:30;;;;;;;8.07;5.68;;;21.80;86.90;;;;;;5209437;28;20017;-71
2022/04/17 03:46:01;;;;;;;10.32;6.45;;;21.80;87.00;;;;;;5241640;28;20377;-70
2022/04/17 03:48:32;;;;;;;7.88;6.30;;;21.70;87.10;;;;;;5207376;28;20025;-71
2022/04/17 03:51:02;;;;;;;9.38;6.35;;;21.70;87.50;;;;;;5208157;28;20220;-71
2022/04/17 03:53:33;;;;;;;8.30;6.28;;;21.70;87.70;;;;;;5199771;28;20466;-71
2022/04/17 03:56:04;;;;;;;8.13;6.50;;;21.70;87.90;;;;;;5197649;28;20033;-72
2022/04/17 03:58:35;;;;;;;8.10;6.28;;;21.70;87.60;;;;;;5209065;28;20042;-72
2022/04/17 04:01:06;;;;;;;7.70;5.90;;;21.70;87.60;;;;;;5209255;28;20017;-73
2022/04/17 04:03:38;;;;;;;9.40;6.22;;;21.70;87.90;;;;;;5209014;28;20018;-72
2022/04/17 04:06:10;;;;;;;9.40;5.82;;;21.70;87.90;;;;;;5207884;28;20021;-72
2022/04/17 04:08:41;;;;;;;10.02;6.10;;;21.60;87.90;;;;;;5209014;28;20109;-73
2022/04/17 04:11:11;;;;;;;9.18;6.18;;;21.60;88.10;;;;;;5208949;28;20167;-73
2022/04/17 04:13:42;;;;;;;8.25;6.20;;;21.60;88.10;;;;;;5238602;28;20021;-73
2022/04/17 04:16:14;;;;;;;10.00;5.85;;;21.70;88.20;;;;;;5208896;28;20030;-74
2022/04/17 04:18:45;;;;;;;8.73;5.50;;;21.60;87.90;;;;;;5208788;28;20018;-73
2022/04/17 04:21:16;;;;;;;8.18;5.93;;;21.60;88.20;;;;;;5208884;28;20030;-73
2022/04/17 04:23:46;;;;;;;8.40;5.93;;;21.60;88.20;;;;;;5197319;28;20374;-73
2022/04/17 04:26:17;;;;;;;8.93;6.35;;;21.60;88.40;;;;;;5188110;28;20038;-72
2022/04/17 04:28:48;;;;;;;7.95;5.38;;;21.50;88.30;;;;;;5188007;28;20030;-72
2022/04/17 04:31:19;;;;;;;8.60;6.18;;;21.60;88.70;;;;;;5200738;28;20116;-72
2022/04/17 04:33:49;;;;;;;8.50;5.95;;;21.60;88.50;;;;;;5208248;28;20032;-73
2022/04/17 04:36:20;;;;;;;8.15;5.32;;;21.50;88.50;;;;;;5191210;28;20108;-72
2022/04/17 04:38:51;;;;;;;8.40;5.32;;;21.50;88.50;;;;;;5208399;28;20010;-72
2022/04/17 04:41:22;;;;;;;7.65;5.70;;;21.50;88.70;;;;;;5207198;28;20013;-73
2022/04/17 04:43:53;;;;;;;7.90;5.25;;;21.50;88.50;;;;;;5239923;28;20025;-72
2022/04/17 04:46:24;;;;;;;8.57;5.60;;;21.50;88.70;;;;;;5208228;28;20108;-72
2022/04/17 04:51:44;;;;;;;8.50;5.30;;;21.40;89.00;;;;;;5206425;28;20037;-73
2022/04/17 04:54:14;;;;;;;8.05;5.55;;;21.50;89.30;;;;;;5191934;28;20034;-72
2022/04/17 04:56:45;;;;;;;6.35;5.60;;;21.50;89.20;;;;;;5187406;28;20057;-74
2022/04/17 04:59:16;;;;;;;7.20;5.13;;;21.40;89.00;;;;;;5187690;28;20065;-73
2022/04/17 05:01:48;;;;;;;7.32;5.40;;;21.40;89.00;;;;;;5219230;28;20021;-71
2022/04/17 05:04:20;;;;;;;7.53;5.13;;;21.40;89.20;;;;;;5202012;28;20037;-72
2022/04/17 05:06:51;;;;;;;16.83;6.15;;;21.40;89.70;;;;;;5207959;28;20446;-71
2022/04/17 05:09:22;;;;;;;12.63;5.63;;;21.40;90.50;;;;;;5207847;28;20038;-72
2022/04/17 05:11:52;;;;;;;8.27;5.00;;;21.40;90.30;;;;;;5207822;28;20028;-72
2022/04/17 05:14:24;;;;;;;8.40;5.70;;;21.30;90.00;;;;;;5205531;28;20100;-72
2022/04/17 05:16:55;;;;;;;10.55;5.38;;;21.30;89.80;;;;;;5206909;28;20025;-72
2022/04/17 05:19:27;;;;;;;13.02;5.40;;;21.30;90.00;;;;;;5207693;28;20072;-71
2022/04/17 05:21:59;;;;;;;8.50;5.32;;;21.30;89.80;;;;;;5207518;28;20021;-72
2022/04/17 05:24:30;;;;;;;8.18;5.38;;;21.20;90.00;;;;;;5205697;28;20108;-71
2022/04/17 05:27:00;;;;;;;7.85;4.90;;;21.30;90.20;;;;;;5207415;28;20108;-71
2022/04/17 05:29:31;;;;;;;8.00;5.45;;;21.30;90.70;;;;;;5206075;28;20052;-69
2022/04/17 05:32:03;;;;;;;8.25;5.18;;;21.20;90.70;;;;;;5207279;28;20021;-70
2022/04/17 05:34:35;;;;;;;9.15;5.30;;;21.20;91.10;;;;;;5205553;28;20032;-68
2022/04/17 05:37:07;;;;;;;11.02;5.45;;;21.20;91.10;;;;;;5206096;28;20033;-70
2022/04/17 05:39:38;;;;;;;7.47;5.35;;;21.20;91.30;;;;;;5207323;28;20025;-69
2022/04/17 05:42:11;;;;;;;13.40;6.47;;;21.10;92.90;;;;;;5192252;28;20030;-70
2022/04/17 05:44:42;;;;;;;16.75;7.32;;;20.60;93.30;;;;;;5186541;28;20018;-68
2022/04/17 05:47:13;;;;;;;12.48;6.18;;;20.80;93.50;;;;;;5186625;28;20025;-70
2022/04/17 05:49:44;;;;;;;10.73;5.60;;;20.90;92.60;;;;;;5186611;28;20413;-71
2022/04/17 05:52:16;;;;;;;14.02;6.38;;;20.90;93.20;;;;;;5186320;28;20026;-71
2022/04/17 05:54:46;;;;;;;10.13;7.07;;;20.90;92.10;;;;;;5199718;28;20020;-70
2022/04/17 05:57:18;;;;;;;13.27;7.07;;;20.60;93.10;;;;;;5205715;28;20477;-71
2022/04/17 05:59:49;;;;;;;13.55;6.72;;;20.70;93.80;;;;;;5207027;28;20160;-71
2022/04/17 06:02:20;;;;;;;15.15;6.75;;;20.80;93.60;;;;;;5206625;28;20458;-71
2022/04/17 06:04:51;;;;;;;21.52;7.05;;;20.80;93.70;;;;;;5206820;28;20029;-71
2022/04/17 06:07:27;;;;;;;19.73;7.03;;;20.80;93.90;;;;;;5207092;28;20074;-71
2022/04/17 06:10:09;;;;;;;14.05;6.00;;;20.80;94.30;;;;;;5225106;28;20113;-69
2022/04/17 06:12:41;;;;;;;12.07;5.88;;;20.90;94.40;;;;;;5202251;28;20041;-69
2022/04/17 06:15:11;;;;;;;14.20;6.00;;;21.00;94.10;;;;;;5205838;28;20086;-68
2022/04/17 06:17:43;;;;;;;21.00;12.20;;;21.20;94.00;;;;;;5204425;28;20029;-68
2022/04/17 06:20:15;;;;;;;28.58;20.20;;;21.40;92.90;;;;;;5199736;28;20144;-70
2022/04/17 06:22:45;;;;;;;35.38;29.30;;;21.80;92.20;;;;;;5186314;28;20100;-69
2022/04/17 06:25:16;;;;;;;38.72;32.97;;;22.10;91.60;;;;;;5229737;28;20049;-68
2022/04/17 06:27:48;;;;;;;40.30;32.22;;;22.50;91.40;;;;;;5206201;28;20034;-71
2022/04/17 06:30:20;;;;;;;34.65;30.70;;;22.70;88.90;;;;;;5203712;28;20501;-70
2022/04/17 06:32:51;;;;;;;34.88;28.45;;;22.90;89.60;;;;;;5195310;28;20489;-70
2022/04/17 06:35:22;;;;;;;35.00;26.10;;;23.10;89.70;;;;;;5225498;28;20033;-68
2022/04/17 06:37:54;;;;;;;26.05;21.40;;;23.20;89.10;;;;;;5192495;28;20029;-70
2022/04/17 06:40:29;;;;;;;24.73;20.25;;;23.20;88.50;;;;;;5203699;28;20026;-71
2022/04/17 06:43:03;;;;;;;28.77;19.75;;;23.20;87.40;;;;;;5206172;28;20067;-70
2022/04/17 06:45:35;;;;;;;25.50;19.38;;;23.30;87.70;;;;;;5205019;28;20112;-70
2022/04/17 06:48:13;;;;;;;24.48;19.05;;;23.40;87.50;;;;;;5204066;28;20422;-69
2022/04/17 06:50:46;;;;;;;26.25;19.88;;;23.30;86.90;;;;;;5197533;28;20030;-71
2022/04/17 06:53:17;;;;;;;25.70;17.73;;;23.60;88.30;;;;;;5205896;28;20053;-72
2022/04/17 06:55:50;;;;;;;76.20;47.50;;;23.70;87.50;;;;;;5206148;28;20037;-72
2022/04/17 06:58:21;;;;;;;157.98;102.20;;;23.70;87.90;;;;;;5209035;28;20396;-71
2022/04/17 07:00:53;;;;;;;132.35;84.07;;;23.70;89.30;;;;;;5206284;28;20053;-71
2022/04/17 07:03:25;;;;;;;120.38;78.53;;;23.80;90.50;;;;;;5205993;28;20496;-71
2022/04/17 07:05:56;;;;;;;108.35;69.88;;;23.80;90.40;;;;;;5206014;28;20028;-71
2022/04/17 07:08:28;;;;;;;110.35;70.68;;;23.80;90.90;;;;;;5205884;28;20074;-71
2022/04/17 07:11:00;;;;;;;99.40;65.72;;;23.80;91.50;;;;;;5206316;28;20037;-72
2022/04/17 07:13:31;;;;;;;98.90;64.00;;;23.90;91.70;;;;;;5204789;28;20381;-73
2022/04/17 07:16:02;;;;;;;89.95;56.55;;;23.80;92.90;;;;;;5217583;28;20040;-72
2022/04/17 07:18:34;;;;;;;97.93;56.60;;;23.80;92.90;;;;;;5220260;28;20428;-72
2022/04/17 07:21:05;;;;;;;84.50;51.85;;;23.70;93.90;;;;;;5205961;28;20105;-70
2022/04/17 07:23:36;;;;;;;81.60;52.78;;;23.70;94.20;;;;;;5205108;28;20528;-73
2022/04/17 07:26:07;;;;;;;76.45;49.85;;;23.70;95.10;;;;;;5202128;28;20018;-71
2022/04/17 07:28:38;;;;;;;77.88;50.63;;;23.60;94.30;;;;;;5202316;28;20041;-69
2022/04/17 07:31:09;;;;;;;78.70;48.03;;;23.50;94.70;;;;;;5196069;28;20029;-69
2022/04/17 07:33:40;;;;;;;71.22;45.42;;;23.50;95.00;;;;;;5208097;28;20024;-70
2022/04/17 07:36:10;;;;;;;74.40;47.13;;;23.50;94.40;;;;;;5204473;28;20053;-71
2022/04/17 07:38:42;;;;;;;67.15;44.60;;;23.50;94.60;;;;;;5197412;28;20100;-69
2022/04/17 07:41:13;;;;;;;66.38;44.78;;;23.40;96.20;;;;;;5205981;28;20025;-68
2022/04/17 07:43:43;;;;;;;66.93;42.35;;;23.40;99.90;;;;;;5207453;28;20037;-67
2022/04/17 07:46:14;;;;;;;64.82;41.80;;;23.70;94.90;;;;;;5204274;28;20014;-68
2022/04/17 07:48:45;;;;;;;68.00;43.42;;;23.70;94.20;;;;;;5209643;28;20075;-67
2022/04/17 07:51:16;;;;;;;66.00;42.78;;;23.60;94.60;;;;;;5211633;28;20033;-67
2022/04/17 07:53:46;;;;;;;63.08;38.80;;;23.70;95.20;;;;;;5207093;28;20100;-68
2022/04/17 07:56:17;;;;;;;59.25;39.38;;;23.70;95.20;;;;;;5196895;28;20021;-69
2022/04/17 07:58:48;;;;;;;61.90;39.70;;;23.80;95.10;;;;;;5209331;28;20496;-67
2022/04/17 08:01:19;;;;;;;60.60;37.05;;;23.90;95.10;;;;;;5208038;28;20485;-67
2022/04/17 08:06:54;;;;;;;16.20;9.18;;;11.40;99.90;;;;;;5286548;28;20477;-72
2022/04/17 08:09:25;;;;;;;26.00;12.50;;;10.70;99.90;;;;;;5283914;28;20027;-71
2022/04/17 08:11:55;;;;;;;29.40;13.00;;;10.60;99.90;;;;;;5263194;28;20479;-72
2022/04/17 08:14:26;;;;;;;51.08;26.20;;;10.50;99.90;;;;;;5251889;28;20108;-72
2022/04/17 08:16:57;;;;;;;33.47;18.98;;;10.50;99.90;;;;;;5256312;28;20678;-72
2022/04/17 08:19:29;;;;;;;27.67;16.13;;;10.50;99.90;;;;;;5262915;28;20020;-73
2022/04/17 08:22:01;;;;;;;29.70;18.17;;;10.60;99.90;;;;;;5263120;28;20025;-71
2022/04/17 08:24:32;;;;;;;28.40;16.08;;;10.60;99.90;;;;;;5263044;28;20020;-71
2022/04/17 08:27:03;;;;;;;28.13;16.65;;;10.60;99.90;;;;;;5258371;28;20056;-71
2022/04/17 08:29:33;;;;;;;35.97;23.13;;;10.50;99.90;;;;;;5243782;28;20060;-70
2022/04/17 08:32:04;;;;;;;35.72;16.27;;;10.60;99.90;;;;;;5248502;28;20063;-70
2022/04/17 08:34:35;;;;;;;31.60;16.02;;;10.40;99.90;;;;;;5265779;28;20099;-70
2022/04/17 08:37:06;;;;;;;33.65;17.35;;;10.40;99.90;;;;;;5259288;28;20112;-78
2022/04/17 08:39:37;;;;;;;44.50;21.45;;;10.70;99.90;;;;;;5244804;28;20021;-77
2022/04/17 08:42:10;;;;;;;34.58;17.20;;;10.50;99.90;;;;;;5258710;28;20024;-78
2022/04/17 08:44:41;;;;;;;33.03;15.48;;;10.50;99.90;;;;;;5249498;28;20538;-70
2022/04/17 08:47:12;;;;;;;34.35;16.27;;;10.40;99.90;;;;;;5244302;28;20029;-70
2022/04/17 08:49:43;;;;;;;30.92;18.63;;;10.40;99.90;;;;;;5243226;28;20435;-70
2022/04/17 08:52:16;;;;;;;40.08;18.73;;;10.40;99.90;;;;;;5242995;28;20368;-79
2022/04/17 08:54:48;;;;;;;34.72;19.45;;;10.40;99.90;;;;;;5244007;28;20024;-80
2022/04/17 08:57:21;;;;;;;27.13;14.07;;;10.50;99.90;;;;;;5244261;28;20096;-70
2022/04/17 08:59:52;;;;;;;35.38;20.83;;;10.30;99.90;;;;;;5242598;28;20035;-71
2022/04/17 09:02:23;;;;;;;30.95;18.23;;;10.40;99.90;;;;;;5244019;28;20029;-70
2022/04/17 09:04:54;;;;;;;37.25;19.45;;;10.40;99.90;;;;;;5243692;28;20057;-70
2022/04/17 09:07:41;;;;;;;34.30;20.50;;;10.40;99.90;;;;;;5242402;28;20053;-78
2022/04/17 09:10:29;;;;;;;29.95;17.17;;;10.40;99.90;;;;;;5244008;28;20032;-73
2022/04/17 09:13:02;;;;;;;31.50;15.70;;;10.30;99.90;;;;;;5243107;28;20047;-79
2022/04/17 09:15:37;;;;;;;37.28;17.50;;;10.20;99.90;;;;;;5243723;28;20013;-75
2022/04/17 09:18:08;;;;;;;30.50;16.50;;;10.30;99.90;;;;;;5231178;28;20039;-70
2022/04/17 09:20:46;;;;;;;33.72;17.05;;;10.20;99.90;;;;;;5230376;28;20488;-70
2022/04/17 09:23:36;;;;;;;44.08;18.23;;;10.20;99.90;;;;;;5230396;28;20029;-70
2022/04/17 09:26:08;;;;;;;38.08;17.77;;;10.10;99.90;;;;;;5230407;28;20044;-70
2022/04/17 09:28:44;;;;;;;35.97;17.90;;;10.10;99.90;;;;;;5230312;28;20051;-70
2022/04/17 09:31:15;;;;;;;32.08;16.95;;;10.10;99.90;;;;;;5230273;28;20032;-70
2022/04/17 09:33:49;;;;;;;44.60;19.80;;;10.20;99.90;;;;;;5229934;28;20025;-70
2022/04/17 09:36:30;;;;;;;33.13;17.17;;;10.10;99.90;;;;;;5229790;28;20033;-70
2022/04/17 09:39:14;;;;;;;44.92;19.85;;;10.10;99.90;;;;;;5229855;28;20028;-70
2022/04/17 09:41:58;;;;;;;36.78;17.67;;;10.10;99.90;;;;;;5229770;28;20376;-70
2022/04/17 09:44:36;;;;;;;40.05;20.25;;;10.00;99.90;;;;;;5229598;28;20021;-70
2022/04/17 09:47:09;;;;;;;42.15;20.13;;;10.10;99.90;;;;;;5229628;28;20021;-70
2022/04/17 09:49:49;;;;;;;40.50;20.23;;;10.20;99.90;;;;;;5228339;28;20055;-70
2022/04/17 09:52:22;;;;;;;36.25;19.45;;;10.00;99.90;;;;;;5228050;28;20493;-70
2022/04/17 09:54:53;;;;;;;37.28;18.27;;;10.10;99.90;;;;;;5228507;28;20025;-70
2022/04/17 09:57:33;;;;;;;40.13;18.73;;;10.00;99.90;;;;;;5229394;28;20089;-70
2022/04/17 10:00:18;;;;;;;35.38;19.98;;;10.10;99.90;;;;;;5229377;28;20029;-70
2022/04/17 10:02:49;;;;;;;42.72;18.58;;;10.10;99.90;;;;;;5229219;28;20074;-70
2022/04/17 10:05:21;;;;;;;39.50;19.45;;;10.00;99.90;;;;;;5227628;28;20069;-70
2022/04/17 10:07:52;;;;;;;35.85;17.20;;;10.00;99.90;;;;;;5229236;28;20375;-70
2022/04/17 10:10:23;;;;;;;37.15;18.80;;;10.10;99.90;;;;;;5229151;28;20025;-70
2022/04/17 10:12:54;;;;;;;40.95;19.15;;;10.00;99.90;;;;;;5227221;28;20116;-70
2022/04/17 10:15:25;;;;;;;34.78;17.73;;;10.00;99.90;;;;;;5229094;28;20100;-70
2022/04/17 10:17:59;;;;;;;32.20;17.75;;;9.90;99.90;;;;;;5229074;28;20132;-70
2022/04/17 10:20:30;;;;;;;35.63;18.48;;;10.00;99.90;;;;;;5228979;28;20020;-70
2022/04/17 10:23:07;;;;;;;32.58;17.17;;;10.00;99.90;;;;;;5228864;28;20036;-70
2022/04/17 10:25:41;;;;;;;40.88;18.85;;;9.90;99.90;;;;;;5227571;28;20093;-70
2022/04/17 10:28:13;;;;;;;38.30;17.05;;;10.00;99.90;;;;;;5227933;28;20123;-70
2022/04/17 10:30:59;;;;;;;41.85;18.65;;;9.90;99.90;;;;;;5228423;28;20479;-70
2022/04/17 10:33:46;;;;;;;32.83;17.23;;;10.00;99.90;;;;;;5228615;28;20013;-70
2022/04/17 10:36:50;;;;;;;36.53;15.88;;;10.00;99.90;;;;;;5227353;28;20068;-70
2022/04/17 10:39:29;;;;;;;34.03;15.65;;;9.90;99.90;;;;;;5228652;28;20020;-70
2022/04/17 10:42:00;;;;;;;34.65;16.50;;;9.90;99.90;;;;;;5228488;28;20025;-70
2022/04/17 10:44:31;;;;;;;39.03;18.20;;;9.90;99.90;;;;;;5228350;28;20099;-70
2022/04/17 10:47:04;;;;;;;47.30;16.90;;;10.00;99.90;;;;;;5228457;28;20025;-70
2022/04/17 10:49:52;;;;;;;39.95;16.25;;;9.90;99.90;;;;;;5228442;28;20017;-70
2022/04/17 10:52:29;;;;;;;40.13;18.05;;;9.80;99.90;;;;;;5228358;28;20029;-70
2022/04/17 10:55:10;;;;;;;31.17;15.32;;;9.90;99.90;;;;;;5228273;28;20021;-70
2022/04/17 10:57:49;;;;;;;39.42;17.95;;;9.90;99.90;;;;;;5228295;28;20036;-70
2022/04/17 11:00:36;;;;;;;39.22;17.23;;;9.80;99.90;;;;;;5228241;28;20040;-70
2022/04/17 11:03:11;;;;;;;27.95;16.70;;;9.70;99.90;;;;;;5228252;28;20346;-70
2022/04/17 11:08:47;;;;;;;26.52;13.30;;;9.70;99.90;;;;;;5228048;28;20024;-70
2022/04/17 11:11:18;;;;;;;31.83;12.98;;;9.90;99.90;;;;;;5227966;28;20108;-70
2022/04/17 11:14:09;;;;;;;26.95;11.95;;;9.80;99.90;;;;;;5226387;28;20160;-70
2022/04/17 11:17:00;;;;;;;23.38;10.70;;;9.80;99.90;;;;;;5227785;28;20024;-70
2022/04/17 11:19:33;;;;;;;22.85;9.20;;;9.70;99.90;;;;;;5227402;28;20048;-70
2022/04/17 11:22:06;;;;;;;19.15;8.75;;;9.60;99.90;;;;;;5227812;28;20108;-70
2022/04/17 11:24:55;;;;;;;21.60;8.23;;;9.60;99.90;;;;;;5227689;28;20021;-79
2022/04/17 11:27:31;;;;;;;21.30;9.27;;;9.60;99.90;;;;;;5227711;28;20067;-70
2022/04/17 11:30:04;;;;;;;20.40;7.90;;;9.70;99.90;;;;;;5227680;28;20472;-70
2022/04/17 11:32:35;;;;;;;18.83;7.97;;;9.70;99.90;;;;;;5227434;28;20109;-71
2022/04/17 11:35:17;;;;;;;18.27;7.40;;;9.60;99.90;;;;;;5227440;28;20029;-70
2022/04/17 11:37:56;;;;;;;17.67;7.88;;;9.90;99.90;;;;;;5226277;28;20032;-70
2022/04/17 11:40:29;;;;;;;21.02;7.85;;;9.60;99.90;;;;;;5227277;28;20036;-70
2022/04/17 11:43:11;;;;;;;15.23;6.75;;;9.80;99.90;;;;;;5227300;28;20021;-70
2022/04/17 11:45:44;;;;;;;15.43;6.13;;;9.70;99.90;;;;;;5227443;28;20064;-70
2022/04/17 11:48:19;;;;;;;15.50;6.78;;;9.60;99.90;;;;;;5226064;28;20029;-70
2022/04/17 11:50:55;;;;;;;18.23;5.97;;;9.70;99.90;;;;;;5226098;28;20090;-70
2022/04/17 11:53:25;;;;;;;15.38;5.88;;;9.50;99.90;;;;;;5227240;28;20048;-70
2022/04/17 11:55:56;;;;;;;18.23;7.00;;;9.50;99.90;;;;;;5236198;28;20028;-69
2022/04/17 11:58:28;;;;;;;22.58;11.43;;;9.60;99.90;;;;;;5241962;28;20477;-70
2022/04/17 12:01:05;;;;;;;24.02;11.55;;;9.50;99.90;;;;;;5239171;28;20032;-75
2022/04/17 12:03:45;;;;;;;23.73;9.85;;;9.60;99.90;;;;;;5243875;28;20029;-75
2022/04/17 12:06:16;;;;;;;24.23;12.73;;;9.50;99.90;;;;;;5234658;28;20056;-71
2022/04/17 12:08:48;;;;;;;22.05;9.05;;;9.50;99.90;;;;;;5238468;28;20025;-70
2022/04/17 12:11:19;;;;;;;17.27;7.88;;;9.40;99.90;;;;;;5227403;28;20387;-70
2022/04/17 12:13:54;;;;;;;20.73;6.47;;;9.40;99.90;;;;;;5226897;28;20108;-70
2022/04/17 12:16:25;;;;;;;18.73;6.57;;;9.50;99.90;;;;;;5225997;28;20091;-70
2022/04/17 12:18:56;;;;;;;16.08;6.28;;;9.40;99.90;;;;;;5226974;28;20118;-70
2022/04/17 12:21:31;;;;;;;18.02;5.43;;;9.40;99.90;;;;;;5226876;28;20036;-70
2022/04/17 12:24:02;;;;;;;13.57;5.47;;;9.40;99.90;;;;;;5226823;28;20021;-70
2022/04/17 12:26:33;;;;;;;13.38;5.45;;;9.40;99.90;;;;;;5223489;28;20036;-71
2022/04/17 12:29:08;;;;;;;16.02;5.50;;;9.40;99.90;;;;;;5226049;28;20017;-70
2022/04/17 12:31:39;;;;;;;14.52;5.57;;;9.30;99.90;;;;;;5225976;28;20029;-70
2022/04/17 12:34:13;;;;;;;15.65;4.55;;;9.40;99.90;;;;;;5226808;28;20032;-70
2022/04/17 12:36:44;;;;;;;11.73;5.05;;;9.40;99.90;;;;;;5226898;28;20029;-69
2022/04/17 12:39:15;;;;;;;11.07;4.65;;;9.60;99.90;;;;;;5239328;28;20031;-70
2022/04/17 12:41:49;;;;;;;11.82;4.72;;;9.30;99.90;;;;;;5247692;28;20051;-71
2022/04/17 12:44:33;;;;;;;39.78;20.50;;;9.20;99.90;;;;;;5238401;28;20051;-71
2022/04/17 12:47:14;;;;;;;28.48;17.67;;;9.20;99.90;;;;;;5245366;28;20039;-71
2022/04/17 12:49:45;;;;;;;13.48;6.60;;;9.30;99.90;;;;;;5246474;28;20119;-71
2022/04/17 12:52:22;;;;;;;11.90;4.88;;;9.20;99.90;;;;;;5249228;28;20024;-71
2022/04/17 12:54:56;;;;;;;14.40;6.03;;;9.30;99.90;;;;;;5250960;28;20025;-82
2022/04/17 12:57:27;;;;;;;15.13;6.05;;;9.30;99.90;;;;;;5251028;28;20025;-83
2022/04/17 12:59:58;;;;;;;13.63;5.20;;;9.30;99.90;;;;;;5249690;28;20047;-83
2022/04/17 13:02:29;;;;;;;11.77;5.68;;;9.20;99.90;;;;;;5250885;28;20503;-80
2022/04/17 13:04:59;;;;;;;13.05;6.40;;;9.20;99.90;;;;;;5250574;28;20060;-71
2022/04/17 13:07:33;;;;;;;13.80;5.53;;;9.20;99.90;;;;;;5250843;28;20017;-70
2022/04/17 13:10:08;;;;;;;12.90;5.78;;;9.30;99.90;;;;;;5249948;28;20012;-70
2022/04/17 13:12:45;;;;;;;15.73;5.50;;;9.10;99.90;;;;;;5250913;28;20115;-70
2022/04/17 13:15:17;;;;;;;16.83;5.45;;;9.10;99.90;;;;;;5251259;28;20025;-70
2022/04/17 13:17:51;;;;;;;14.20;5.65;;;9.20;99.90;;;;;;5251148;28;20021;-70
2022/04/17 13:20:24;;;;;;;19.23;10.23;;;9.10;99.90;;;;;;5251021;28;20033;-71
2022/04/17 13:22:55;;;;;;;19.80;8.40;;;9.20;99.90;;;;;;5250830;28;20078;-71
2022/04/17 13:25:26;;;;;;;13.80;6.50;;;9.10;99.90;;;;;;5249631;28;20033;-70
2022/04/17 13:27:57;;;;;;;14.27;5.75;;;9.20;99.90;;;;;;5250929;28;20025;-70